Time;durP1;ratioP1;P1;durP2;ratioP2;P2;SDS_P1;SDS_P2;PMS_P1;PMS_P2;Temp;Humidity;BMP_temperature;BMP_pressure;BME280_temperature;BME280_humidity;BME280_pressure;Samples;Min_cycle;Max_cycle;Signal;HPM_P1;HPM_P2
2022/02/23 00:01:13;;;;;;;28.05;22.05;;;;;;;8.12;79.52;100611.72;5009592;28;20046;-77
2022/02/23 00:03:38;;;;;;;29.45;24.02;;;;;;;8.16;79.35;100616.16;5005633;28;20038;-77
2022/02/23 00:06:04;;;;;;;30.08;22.65;;;;;;;8.12;79.50;100620.44;5008371;28;20033;-76
2022/02/23 00:08:36;;;;;;;26.88;22.48;;;;;;;8.00;80.21;100626.38;5015625;28;20493;-76
2022/02/23 00:11:01;;;;;;;33.15;24.92;;;;;;;8.00;80.46;100622.91;5005253;28;20672;-77
2022/02/23 00:13:27;;;;;;;30.65;22.95;;;;;;;7.95;80.95;100619.34;4999257;28;20129;-77
2022/02/23 00:15:54;;;;;;;29.17;22.83;;;;;;;8.03;80.48;100613.38;5002451;28;20095;-77
2022/02/23 00:18:20;;;;;;;27.60;22.23;;;;;;;7.88;80.97;100614.91;5003084;28;20417;-76
2022/02/23 00:20:46;;;;;;;29.80;24.27;;;;;;;7.91;81.47;100613.19;5006959;28;20049;-75
2022/02/23 00:23:11;;;;;;;31.45;23.55;;;;;;;7.87;81.43;100618.38;4994881;28;20506;-76
2022/02/23 00:25:37;;;;;;;27.88;23.90;;;;;;;7.86;80.99;100620.09;5003389;28;20033;-77
2022/02/23 00:28:03;;;;;;;29.52;21.73;;;;;;;7.97;81.01;100620.25;5007038;28;20099;-76
2022/02/23 00:30:28;;;;;;;26.23;21.00;;;;;;;7.79;81.71;100613.03;4991311;28;20104;-76
2022/02/23 00:32:55;;;;;;;31.20;21.63;;;;;;;7.93;81.50;100608.88;5005318;28;20351;-77
2022/02/23 00:35:20;;;;;;;30.35;21.05;;;;;;;7.84;82.08;100632.25;5002392;28;20080;-77
2022/02/23 00:37:46;;;;;;;30.73;19.70;;;;;;;7.74;81.70;100618.19;4996126;28;20482;-76
2022/02/23 00:40:12;;;;;;;25.85;21.02;;;;;;;7.65;82.01;100615.44;4997745;28;20047;-77
2022/02/23 00:42:37;;;;;;;29.67;21.40;;;;;;;7.85;82.37;100620.09;5000249;28;20112;-77
2022/02/23 00:45:03;;;;;;;31.02;22.55;;;;;;;8.07;81.72;100626.47;5007518;28;20433;-75
2022/02/23 00:47:29;;;;;;;28.92;21.23;;;;;;;7.87;82.05;100634.06;5009367;28;20026;-75
2022/02/23 00:49:54;;;;;;;21.77;19.50;;;;;;;7.74;82.28;100631.22;4997018;28;20042;-75
2022/02/23 00:52:20;;;;;;;24.98;19.98;;;;;;;7.82;81.79;100629.63;5003203;28;20474;-77
2022/02/23 00:54:45;;;;;;;30.17;20.55;;;;;;;8.05;81.87;100631.66;5012125;28;20046;-77
2022/02/23 00:57:13;;;;;;;31.70;23.38;;;;;;;8.01;81.37;100619.44;4987303;28;20049;-76
2022/02/23 00:59:39;;;;;;;27.77;20.02;;;;;;;8.05;81.38;100618.59;5005507;28;20028;-75
2022/02/23 01:02:04;;;;;;;27.38;21.88;;;;;;;7.71;82.29;100617.28;5030584;28;20428;-75
2022/02/23 01:04:30;;;;;;;27.40;21.30;;;;;;;8.03;81.80;100626.44;5003171;28;20446;-74
2022/02/23 01:06:55;;;;;;;25.88;19.85;;;;;;;8.09;81.50;100628.25;5006319;28;20546;-75
2022/02/23 01:09:21;;;;;;;31.90;21.90;;;;;;;8.08;81.29;100628.22;5005375;28;20050;-75
2022/02/23 01:11:46;;;;;;;26.02;20.15;;;;;;;7.81;82.15;100640.03;5003950;28;20026;-75
2022/02/23 01:14:12;;;;;;;23.83;18.75;;;;;;;7.88;81.79;100628.81;4997641;28;20042;-75
2022/02/23 01:16:38;;;;;;;24.40;19.50;;;;;;;7.69;82.02;100637.25;5002651;28;20042;-75
2022/02/23 01:19:03;;;;;;;26.55;19.58;;;;;;;7.82;81.79;100628.75;4998895;28;20529;-75
2022/02/23 01:21:29;;;;;;;28.95;22.73;;;;;;;7.90;81.80;100634.09;5006223;28;20045;-75
2022/02/23 01:23:55;;;;;;;24.52;19.48;;;;;;;7.93;81.90;100634.13;4995486;28;20088;-75
2022/02/23 01:26:21;;;;;;;27.60;18.35;;;;;;;7.88;81.46;100638.41;4992901;28;20053;-74
2022/02/23 01:28:47;;;;;;;27.50;21.80;;;;;;;7.73;81.89;100631.22;4994405;28;20077;-75
2022/02/23 01:31:13;;;;;;;23.38;19.77;;;;;;;7.93;81.65;100635.00;5006856;28;20045;-75
2022/02/23 01:33:39;;;;;;;26.55;19.77;;;;;;;7.81;81.73;100625.25;5011453;28;20049;-76
2022/02/23 01:36:05;;;;;;;22.92;19.23;;;;;;;7.89;81.95;100645.38;4999560;28;20500;-75
2022/02/23 01:38:30;;;;;;;23.52;18.75;;;;;;;7.86;81.97;100641.00;5011215;28;20472;-75
2022/02/23 01:40:56;;;;;;;28.67;20.33;;;;;;;7.96;81.52;100642.91;5009178;28;20042;-75
2022/02/23 01:43:22;;;;;;;22.10;18.85;;;;;;;7.78;82.12;100637.41;5007776;28;20054;-75
2022/02/23 01:45:47;;;;;;;23.23;18.98;;;;;;;7.88;82.16;100657.56;5001654;28;20100;-75
2022/02/23 01:48:13;;;;;;;25.17;19.92;;;;;;;7.80;82.56;100654.84;5008643;28;20484;-75
2022/02/23 01:50:41;;;;;;;28.67;20.60;;;;;;;8.03;81.39;100659.53;5010225;28;20137;-75
2022/02/23 01:56:28;;;;;;;27.15;20.50;;;;;;;7.90;81.92;100666.31;5008716;28;20073;-75
2022/02/23 01:58:54;;;;;;;25.98;20.70;;;;;;;7.93;81.60;100653.28;5002630;28;20039;-75
2022/02/23 02:01:39;;;;;;;23.92;19.55;;;;;;;8.02;81.59;100669.09;5009455;28;20065;-75
2022/02/23 02:04:04;;;;;;;31.08;19.08;;;;;;;7.85;81.89;100661.88;5005862;28;20060;-75
2022/02/23 02:06:30;;;;;;;26.90;20.60;;;;;;;7.77;81.73;100672.19;5007239;28;20038;-75
2022/02/23 02:08:55;;;;;;;25.50;20.05;;;;;;;7.81;82.09;100668.78;5006109;28;20026;-75
2022/02/23 02:11:21;;;;;;;26.17;20.08;;;;;;;7.95;81.44;100666.38;5006920;28;20057;-75
2022/02/23 02:13:46;;;;;;;27.23;19.75;;;;;;;7.80;81.81;100678.34;5003067;28;20044;-76
2022/02/23 02:16:34;;;;;;;22.15;19.15;;;;;;;7.81;81.88;100692.28;5008968;28;20111;-75
2022/02/23 02:19:23;;;;;;;24.50;19.83;;;;;;;7.88;82.11;100690.66;5001442;28;20478;-75
2022/02/23 02:22:01;;;;;;;23.67;18.45;;;;;;;7.40;83.07;100693.38;4999953;28;20046;-75
2022/02/23 02:24:29;;;;;;;25.65;19.10;;;;;;;7.60;83.16;100701.53;5005023;28;20042;-75
2022/02/23 02:26:56;;;;;;;29.02;18.50;;;;;;;7.69;82.67;100699.94;4994620;28;20026;-75
2022/02/23 02:29:22;;;;;;;29.95;21.33;;;;;;;7.54;82.70;100711.03;5003882;28;20050;-75
2022/02/23 02:31:48;;;;;;;23.42;19.85;;;;;;;7.66;82.59;100716.44;5005537;28;20042;-75
2022/02/23 02:34:15;;;;;;;33.38;22.08;;;;;;;7.73;82.12;100720.91;5009615;28;20418;-74
2022/02/23 02:36:42;;;;;;;32.95;21.35;;;;;;;7.78;81.83;100734.06;5007714;28;20065;-75
2022/02/23 02:39:08;;;;;;;25.05;19.75;;;;;;;7.40;82.56;100752.53;5003113;28;20038;-75
2022/02/23 02:41:35;;;;;;;28.42;20.50;;;;;;;6.96;84.58;100765.59;4997882;28;20030;-74
2022/02/23 02:44:01;;;;;;;26.13;17.77;;;;;;;7.35;83.52;100767.22;4991725;28;20053;-76
2022/02/23 02:46:26;;;;;;;25.67;18.73;;;;;;;6.97;84.47;100777.78;4998702;28;20145;-74
2022/02/23 02:48:52;;;;;;;26.90;19.55;;;;;;;6.95;84.86;100758.63;4999848;28;20042;-75
2022/02/23 02:51:18;;;;;;;28.55;20.42;;;;;;;7.02;85.45;100793.53;5007996;28;20041;-76
2022/02/23 02:53:44;;;;;;;33.60;19.77;;;;;;;7.55;84.14;100798.94;4991446;28;20027;-75
2022/02/23 02:56:09;;;;;;;27.08;20.50;;;;;;;7.66;82.97;100800.03;5009164;28;20454;-75
2022/02/23 02:58:35;;;;;;;30.23;22.08;;;;;;;7.69;82.93;100805.28;5010785;28;20042;-74
2022/02/23 03:01:01;;;;;;;25.40;21.75;;;;;;;7.63;82.66;100807.78;4991507;28;20069;-75
2022/02/23 03:03:28;;;;;;;31.83;23.92;;;;;;;7.46;83.53;100801.38;5001045;28;20034;-75
2022/02/23 03:05:53;;;;;;;26.88;22.20;;;;;;;7.59;82.87;100803.38;5014321;28;20041;-75
2022/02/23 03:08:18;;;;;;;26.30;21.92;;;;;;;7.81;82.43;100807.22;5010870;28;20034;-75
2022/02/23 03:10:44;;;;;;;25.15;21.60;;;;;;;7.67;81.80;100811.34;5008079;28;20046;-75
2022/02/23 03:13:13;;;;;;;26.88;21.48;;;;;;;7.91;81.76;100813.50;5014259;28;20046;-75
2022/02/23 03:15:39;;;;;;;31.30;25.25;;;;;;;7.75;81.14;100817.56;5009458;28;20116;-75
2022/02/23 03:18:05;;;;;;;31.17;23.27;;;;;;;7.80;80.91;100823.78;5006210;28;20538;-75
2022/02/23 03:20:34;;;;;;;32.28;23.77;;;;;;;7.26;81.99;100814.94;5007862;28;20045;-75
2022/02/23 03:23:01;;;;;;;32.13;24.67;;;;;;;7.59;81.57;100816.44;4995208;28;20061;-75
2022/02/23 03:26:08;;;;;;;31.77;24.70;;;;;;;7.77;80.85;100827.22;5005170;28;20144;-75
2022/02/23 03:28:35;;;;;;;30.15;23.40;;;;;;;7.89;79.86;100823.94;5010343;28;20111;-75
2022/02/23 03:31:01;;;;;;;35.08;25.33;;;;;;;7.03;80.93;100837.94;5011688;28;20038;-75
2022/02/23 03:33:26;;;;;;;29.80;23.80;;;;;;;7.47;80.57;100831.84;5002757;28;20037;-75
2022/02/23 03:39:05;;;;;;;32.08;24.27;;;;;;;7.60;77.81;100826.88;5010357;28;20108;-75
2022/02/23 03:41:31;;;;;;;35.30;22.00;;;;;;;7.71;76.80;100837.53;5001543;28;20038;-75
2022/02/23 03:43:57;;;;;;;39.08;22.98;;;;;;;7.65;76.56;100832.19;4999444;28;20558;-75
2022/02/23 03:49:55;;;;;;;30.48;23.83;;;;;;;7.60;75.76;100831.22;5005478;28;20042;-74
2022/02/23 03:52:21;;;;;;;28.38;22.42;;;;;;;7.54;75.30;100823.31;5005993;28;20057;-74
2022/02/23 03:54:47;;;;;;;27.30;21.73;;;;;;;7.52;74.20;100825.00;4998459;28;20034;-75
2022/02/23 03:57:13;;;;;;;24.40;21.25;;;;;;;7.65;73.58;100831.31;5008927;28;20072;-75
2022/02/23 03:59:55;;;;;;;28.40;20.77;;;;;;;7.67;73.39;100835.72;5001462;28;20610;-75
2022/02/23 04:02:20;;;;;;;23.88;19.20;;;;;;;7.59;72.41;100837.31;5005995;28;20057;-75
2022/02/23 04:04:46;;;;;;;24.17;19.77;;;;;;;7.65;71.63;100837.41;4993907;28;20038;-75
2022/02/23 04:07:11;;;;;;;23.08;18.88;;;;;;;7.76;71.13;100859.41;5005849;28;20214;-74
2022/02/23 04:09:37;;;;;;;27.15;18.95;;;;;;;7.70;70.60;100850.56;5005941;28;20044;-75
2022/02/23 04:12:03;;;;;;;24.20;18.17;;;;;;;7.79;70.13;100854.22;5028668;28;20018;-75
2022/02/23 04:14:29;;;;;;;26.60;16.83;;;;;;;7.84;69.39;100864.75;5039840;28;20406;-75
2022/02/23 04:16:54;;;;;;;19.98;15.85;;;;;;;7.80;69.80;100853.38;5005805;28;20041;-75
2022/02/23 04:19:20;;;;;;;27.45;17.65;;;;;;;7.52;70.66;100854.59;5010801;28;20050;-75
2022/02/23 04:21:46;;;;;;;21.50;17.27;;;;;;;7.41;69.92;100858.72;5011592;28;20041;-75
2022/02/23 04:24:11;;;;;;;24.52;17.02;;;;;;;7.66;69.28;100869.66;4992684;28;20500;-75
2022/02/23 04:26:37;;;;;;;21.30;15.65;;;;;;;7.58;69.89;100870.38;5009701;28;20070;-75
2022/02/23 04:29:04;;;;;;;25.00;17.42;;;;;;;7.59;69.91;100871.28;4997033;28;20092;-75
2022/02/23 04:31:29;;;;;;;21.55;15.43;;;;;;;7.49;68.95;100869.31;5008409;28;20534;-75
2022/02/23 04:33:55;;;;;;;23.45;16.48;;;;;;;7.53;69.13;100871.13;5008056;28;20121;-75
2022/02/23 04:36:21;;;;;;;22.30;15.43;;;;;;;7.57;68.23;100881.66;5006076;28;20133;-75
2022/02/23 04:38:46;;;;;;;19.65;13.75;;;;;;;7.65;66.38;100891.38;5001461;28;20447;-75
2022/02/23 04:41:15;;;;;;;17.77;12.30;;;;;;;7.68;65.36;100886.22;4998605;28;20056;-75
2022/02/23 04:44:01;;;;;;;22.67;13.95;;;;;;;7.47;63.17;100897.13;5005479;28;20104;-75
2022/02/23 04:46:27;;;;;;;20.02;13.60;;;;;;;7.52;64.63;100898.13;4989075;28;20089;-75
2022/02/23 04:48:53;;;;;;;17.67;13.98;;;;;;;7.62;64.98;100913.09;4992794;28;20441;-75
2022/02/23 04:51:25;;;;;;;18.83;14.07;;;;;;;7.56;64.93;100913.88;4995207;28;20470;-75
2022/02/23 04:53:54;;;;;;;17.48;13.10;;;;;;;7.29;62.70;100922.00;5008382;28;20042;-75
2022/02/23 04:56:19;;;;;;;18.20;12.27;;;;;;;7.18;62.48;100926.97;5006129;28;20034;-76
2022/02/23 04:58:45;;;;;;;20.10;14.13;;;;;;;7.58;62.12;100929.56;4998449;28;20545;-75
2022/02/23 05:01:11;;;;;;;16.50;12.35;;;;;;;7.48;61.87;100930.22;5001699;28;20046;-76
2022/02/23 05:03:39;;;;;;;17.48;11.80;;;;;;;7.35;62.19;100935.19;5001030;28;20058;-76
2022/02/23 05:06:05;;;;;;;19.83;12.23;;;;;;;7.37;61.70;100933.50;4992328;28;20117;-76
2022/02/23 05:08:31;;;;;;;20.65;12.85;;;;;;;7.59;61.43;100940.03;5009436;28;20033;-76
2022/02/23 05:11:01;;;;;;;21.23;11.82;;;;;;;7.57;61.03;100944.34;5005700;28;20072;-76
2022/02/23 05:13:27;;;;;;;22.38;12.38;;;;;;;7.40;61.20;100957.06;5014789;28;20064;-76
2022/02/23 05:16:02;;;;;;;18.33;12.55;;;;;;;7.66;62.29;100953.25;5006253;28;20125;-76
2022/02/23 05:18:29;;;;;;;18.92;12.45;;;;;;;7.70;61.79;100949.81;5001705;28;20551;-77
2022/02/23 05:20:55;;;;;;;18.58;12.27;;;;;;;7.71;60.86;100957.69;4995991;28;20580;-76
2022/02/23 05:23:22;;;;;;;24.80;12.40;;;;;;;7.73;60.86;100963.84;5008024;28;20046;-77
2022/02/23 05:26:04;;;;;;;16.40;12.52;;;;;;;7.69;61.03;100993.34;5008327;28;20041;-76
2022/02/23 05:28:32;;;;;;;17.75;11.95;;;;;;;7.52;62.97;100977.31;5005826;28;20096;-76
2022/02/23 05:30:57;;;;;;;21.63;12.07;;;;;;;7.52;61.05;100984.28;4995160;28;20038;-76
2022/02/23 05:33:23;;;;;;;15.95;12.10;;;;;;;7.85;62.14;100985.84;4996461;28;20137;-75
2022/02/23 05:35:48;;;;;;;20.90;12.52;;;;;;;7.76;60.71;100997.84;5007039;28;20108;-74
2022/02/23 05:38:14;;;;;;;18.30;12.23;;;;;;;7.88;60.33;100996.34;5006766;28;20046;-75
2022/02/23 05:41:06;;;;;;;16.85;11.77;;;;;;;7.89;59.86;101005.94;5002079;28;20053;-75
2022/02/23 05:43:56;;;;;;;17.95;13.40;;;;;;;7.47;60.79;101017.22;5000094;28;20068;-75
2022/02/23 05:46:22;;;;;;;16.08;12.90;;;;;;;7.28;61.04;101011.59;5007222;28;20075;-75
2022/02/23 05:48:47;;;;;;;24.33;14.73;;;;;;;7.27;60.82;101028.09;5010152;28;20034;-76
2022/02/23 05:51:33;;;;;;;22.38;16.88;;;;;;;7.03;60.93;101024.91;4997067;28;20113;-76
2022/02/23 05:54:00;;;;;;;18.45;14.82;;;;;;;6.79;60.98;101033.00;4996630;28;20114;-76
2022/02/23 05:56:26;;;;;;;19.23;13.55;;;;;;;7.16;60.37;101021.75;5000212;28;20042;-76
2022/02/23 05:58:52;;;;;;;19.88;13.70;;;;;;;7.02;59.92;101033.56;5000860;28;20038;-76
2022/02/23 06:01:39;;;;;;;20.30;11.95;;;;;;;6.78;61.45;101028.63;5001589;28;20581;-76
2022/02/23 06:04:04;;;;;;;17.58;12.57;;;;;;;6.80;61.14;101033.03;5004071;28;20033;-76
2022/02/23 06:06:32;;;;;;;18.08;12.50;;;;;;;6.91;61.02;101044.66;4991099;28;20057;-76
2022/02/23 06:08:57;;;;;;;19.10;14.25;;;;;;;7.17;59.88;101031.34;5001922;28;20022;-75
2022/02/23 06:11:24;;;;;;;29.65;17.77;;;;;;;7.30;59.13;101033.38;5007682;28;20433;-77
2022/02/23 06:13:53;;;;;;;32.80;20.88;;;;;;;7.41;59.71;101041.47;5007870;28;20046;-75
2022/02/23 06:16:23;;;;;;;28.83;16.63;;;;;;;6.75;60.89;101045.97;4993713;28;20474;-76
2022/02/23 06:18:49;;;;;;;43.05;19.52;;;;;;;7.02;61.06;101051.84;5004447;28;20071;-75
2022/02/23 06:21:15;;;;;;;85.72;36.13;;;;;;;7.25;59.51;101052.41;5005555;28;20109;-76
2022/02/23 06:23:45;;;;;;;149.23;56.88;;;;;;;7.37;59.89;101055.28;4999029;28;20026;-75
2022/02/23 06:26:10;;;;;;;57.45;30.52;;;;;;;7.35;60.71;101044.84;4999492;28;20050;-76
2022/02/23 06:28:36;;;;;;;23.40;16.20;;;;;;;7.37;59.44;101050.97;5002699;28;20077;-76
2022/02/23 06:31:49;;;;;;;23.40;16.40;;;;;;;7.47;59.73;101053.78;5002385;28;20046;-77
2022/02/23 06:34:31;;;;;;;17.30;12.20;;;;;;;6.87;59.57;101068.00;5023761;28;20123;-77
2022/02/23 06:37:02;;;;;;;16.27;12.32;;;;;;;6.81;59.84;101053.06;5019983;28;20040;-76
2022/02/23 06:40:19;;;;;;;16.33;11.85;;;;;;;6.61;60.07;101073.41;5012388;28;20058;-76
2022/02/23 06:42:45;;;;;;;16.23;10.93;;;;;;;6.40;60.01;101065.91;5001515;28;20689;-76
2022/02/23 06:45:11;;;;;;;16.58;8.98;;;;;;;6.40;59.71;101073.72;4999187;28;20042;-76
2022/02/23 06:47:37;;;;;;;15.82;11.00;;;;;;;6.45;60.50;101079.06;5002408;28;20121;-77
2022/02/23 06:50:04;;;;;;;14.52;10.80;;;;;;;6.55;59.20;101074.16;5018567;28;20049;-77
2022/02/23 06:52:30;;;;;;;18.27;12.25;;;;;;;6.61;59.66;101073.41;5004595;28;20038;-72
2022/02/23 06:54:56;;;;;;;20.33;11.43;;;;;;;6.85;60.00;101087.94;5003832;28;20034;-73
2022/02/23 06:57:23;;;;;;;13.60;10.35;;;;;;;6.68;60.53;101090.13;5002780;28;20053;-72
2022/02/23 06:59:48;;;;;;;17.23;12.25;;;;;;;6.96;58.68;101087.38;4999108;28;20408;-72
2022/02/23 07:02:14;;;;;;;17.80;13.73;;;;;;;7.16;58.85;101090.50;5005724;28;20073;-72
2022/02/23 07:04:41;;;;;;;14.75;12.15;;;;;;;6.82;59.55;101100.91;5000032;28;20114;-72
2022/02/23 07:07:08;;;;;;;19.83;13.00;;;;;;;7.11;57.98;101092.09;5009531;28;20389;-74
2022/02/23 07:09:33;;;;;;;35.83;15.50;;;;;;;7.40;57.17;101079.75;5005397;28;20125;-71
2022/02/23 07:12:02;;;;;;;26.77;19.77;;;;;;;7.25;58.49;101095.03;4998976;28;20708;-74
2022/02/23 07:14:28;;;;;;;27.70;17.17;;;;;;;7.45;57.39;101089.44;5005173;28;20397;-72
2022/02/23 07:16:53;;;;;;;21.20;16.23;;;;;;;7.21;59.50;101084.50;5005860;28;20045;-72
2022/02/23 07:19:20;;;;;;;15.02;10.40;;;;;;;7.22;56.65;101100.19;5008738;28;20129;-72
2022/02/23 07:22:00;;;;;;;17.55;10.82;;;;;;;7.67;56.16;101091.69;5010451;28;20030;-72
2022/02/23 07:24:26;;;;;;;18.45;10.82;;;;;;;7.97;55.28;101096.72;5022187;28;20093;-78
2022/02/23 07:26:51;;;;;;;21.20;12.25;;;;;;;7.73;56.40;101089.22;4998711;28;20030;-77
2022/02/23 07:29:17;;;;;;;21.15;14.30;;;;;;;7.68;55.48;101092.56;5007648;28;20042;-79
2022/02/23 07:31:44;;;;;;;17.30;11.95;;;;;;;8.03;54.63;101093.38;5014376;28;20041;-78
2022/02/23 07:34:10;;;;;;;15.70;12.07;;;;;;;7.91;55.06;101087.84;5009253;28;20057;-79
2022/02/23 07:36:36;;;;;;;24.33;11.52;;;;;;;8.10;54.27;101081.28;4996913;28;20076;-78
2022/02/23 07:39:02;;;;;;;16.40;11.48;;;;;;;8.31;53.12;101078.22;5008013;28;20528;-79
2022/02/23 07:41:29;;;;;;;14.52;11.02;;;;;;;7.66;53.53;101089.94;4992523;28;20030;-70
2022/02/23 07:43:55;;;;;;;14.55;9.68;;;;;;;8.17;53.75;101080.56;5009314;28;20054;-68
2022/02/23 07:46:20;;;;;;;19.00;9.45;;;;;;;8.47;52.13;101069.84;4999973;28;20050;-72
2022/02/23 07:49:01;;;;;;;8.90;7.65;;;;;;;7.83;52.25;101085.94;5011336;28;20042;-73
2022/02/23 07:51:27;;;;;;;12.90;8.65;;;;;;;7.48;53.35;101069.50;5000841;28;20481;-74
2022/02/23 07:53:55;;;;;;;13.73;9.10;;;;;;;7.79;52.92;101058.00;5009461;28;20029;-73
2022/02/23 07:56:22;;;;;;;20.17;7.78;;;;;;;7.59;53.67;101049.72;5004243;28;20030;-73
2022/02/23 07:58:49;;;;;;;11.88;8.75;;;;;;;8.21;52.37;101058.84;5000426;28;20136;-73
2022/02/23 08:01:30;;;;;;;13.57;9.35;;;;;;;8.21;51.91;101070.19;5001900;28;20038;-72
2022/02/23 08:03:56;;;;;;;12.15;8.35;;;;;;;7.59;52.81;101082.81;5004539;28;20121;-71
2022/02/23 08:06:22;;;;;;;12.25;7.43;;;;;;;8.24;52.28;101049.34;5010581;28;20230;-73
2022/02/23 08:08:48;;;;;;;11.73;7.80;;;;;;;8.76;52.14;101064.31;5008635;28;20025;-75
2022/02/23 08:11:18;;;;;;;24.70;8.70;;;;;;;8.87;50.74;101070.59;5010160;28;20049;-74
2022/02/23 08:13:44;;;;;;;12.13;7.95;;;;;;;7.94;51.69;101070.53;5010783;28;20038;-76
2022/02/23 08:21:57;;;;;;;14.10;9.15;;;;;;;8.12;51.57;101045.59;5007059;28;20052;-79
2022/02/23 08:24:23;;;;;;;11.70;8.00;;;;;;;8.31;51.25;101049.47;5001308;28;20046;-79
2022/02/23 08:26:48;;;;;;;11.55;8.68;;;;;;;8.31;51.60;101057.31;5010500;28;20116;-79
2022/02/23 08:29:16;;;;;;;19.90;8.60;;;;;;;8.72;51.30;101052.88;5002421;28;20042;-78
2022/02/23 08:31:42;;;;;;;11.35;8.40;;;;;;;8.52;51.55;101055.16;5000027;28;20038;-78
2022/02/23 08:34:07;;;;;;;12.50;8.13;;;;;;;8.95;50.65;101057.66;5007216;28;20052;-80
2022/02/23 08:36:33;;;;;;;14.57;8.65;;;;;;;9.13;50.41;101054.44;4986622;28;20034;-80
2022/02/23 08:38:58;;;;;;;22.98;10.73;;;;;;;9.22;49.97;101063.31;5008497;28;20034;-80
2022/02/23 08:41:24;;;;;;;14.18;10.38;;;;;;;9.20;49.42;101054.59;5009514;28;20030;-81
2022/02/23 08:43:50;;;;;;;13.00;8.45;;;;;;;8.84;49.23;101067.94;5009184;28;20038;-83
2022/02/23 08:46:16;;;;;;;12.25;8.45;;;;;;;9.09;48.61;101062.25;5007435;28;20076;-83
2022/02/23 08:48:42;;;;;;;12.05;8.88;;;;;;;9.24;50.30;101052.88;5002501;28;20046;-84
2022/02/23 08:51:07;;;;;;;15.10;8.75;;;;;;;8.92;48.93;101071.56;4980543;28;20348;-81
2022/02/23 08:53:33;;;;;;;14.00;8.50;;;;;;;9.29;49.32;101069.53;4986978;28;20061;-76
2022/02/23 08:55:59;;;;;;;23.85;10.55;;;;;;;9.66;48.49;101070.09;5005097;28;20492;-75
2022/02/23 08:58:24;;;;;;;14.52;9.15;;;;;;;9.54;48.08;101081.28;5007936;28;20046;-75
2022/02/23 09:00:51;;;;;;;15.95;10.82;;;;;;;9.29;48.45;101066.91;5007500;28;20096;-76
2022/02/23 09:03:21;;;;;;;11.73;9.57;;;;;;;9.88;48.21;101076.50;5005697;28;20054;-77
2022/02/23 09:05:47;;;;;;;13.02;8.05;;;;;;;9.42;48.44;101075.88;4999570;28;20110;-77
2022/02/23 09:08:13;;;;;;;11.48;8.85;;;;;;;9.71;47.23;101063.19;5004644;28;20068;-78
2022/02/23 09:10:39;;;;;;;15.98;8.75;;;;;;;10.22;47.24;101071.72;4999076;28;20045;-78
2022/02/23 09:13:05;;;;;;;14.75;9.75;;;;;;;10.23;46.95;101071.75;5006242;28;20104;-78
2022/02/23 09:15:31;;;;;;;11.30;8.57;;;;;;;10.54;46.60;101064.25;5003523;28;20061;-76
2022/02/23 09:17:57;;;;;;;12.38;8.88;;;;;;;9.48;47.36;101068.09;4999282;28;20068;-76
2022/02/23 09:20:29;;;;;;;12.63;9.35;;;;;;;9.00;48.72;101074.31;4997451;28;20049;-76
2022/02/23 09:22:55;;;;;;;21.45;9.73;;;;;;;10.25;47.57;101072.63;4996031;28;20066;-75
2022/02/23 09:25:23;;;;;;;11.77;9.88;;;;;;;10.79;46.37;101075.84;5012109;28;20077;-76
2022/02/23 09:28:04;;;;;;;16.13;10.48;;;;;;;10.02;46.27;101074.97;4998547;28;20041;-75
2022/02/23 09:30:31;;;;;;;13.50;10.38;;;;;;;9.65;47.34;101082.31;4977413;28;20118;-75
2022/02/23 09:32:56;;;;;;;18.33;9.57;;;;;;;10.23;46.29;101068.22;4982370;28;20034;-75
2022/02/23 09:35:22;;;;;;;18.38;9.60;;;;;;;10.65;45.49;101070.50;4984061;28;20018;-75
2022/02/23 09:37:48;;;;;;;15.38;8.77;;;;;;;10.89;45.10;101079.47;4978508;28;20042;-76
2022/02/23 09:40:15;;;;;;;14.93;8.18;;;;;;;10.57;44.30;101069.53;4972662;28;20069;-76
2022/02/23 09:42:45;;;;;;;21.80;9.45;;;;;;;10.31;45.65;101074.47;4975014;28;20133;-76
2022/02/23 09:45:12;;;;;;;13.65;9.27;;;;;;;11.09;45.03;101072.63;4972429;28;20113;-77
2022/02/23 09:47:38;;;;;;;14.02;9.93;;;;;;;11.49;44.57;101056.28;5000741;28;20546;-76
2022/02/23 09:50:07;;;;;;;15.27;8.38;;;;;;;11.56;43.71;101045.81;4979943;28;20048;-76
2022/02/23 09:52:33;;;;;;;11.60;8.75;;;;;;;11.22;43.14;101060.50;4979590;28;20046;-75
2022/02/23 09:55:04;;;;;;;16.58;9.55;;;;;;;11.12;45.23;101058.66;4975828;28;20039;-77
2022/02/23 09:57:37;;;;;;;14.88;10.18;;;;;;;11.22;44.47;101041.25;4979798;28;20505;-77
2022/02/23 10:00:22;;;;;;;21.25;9.05;;;;;;;11.80;43.58;101052.13;4991021;28;20030;-74
2022/02/23 10:02:56;;;;;;;15.27;11.05;;;;;;;11.54;43.48;101050.22;4981522;28;20033;-74
2022/02/23 10:05:43;;;;;;;19.38;11.23;;;;;;;11.84;43.06;101051.25;4984691;28;20129;-76
2022/02/23 10:08:53;;;;;;;16.52;11.00;;;;;;;11.70;43.90;101052.91;4972068;28;20057;-75
2022/02/23 10:11:56;;;;;;;22.90;11.30;;;;;;;11.34;44.03;101055.31;4971636;28;20077;-76
2022/02/23 10:14:22;;;;;;;16.25;11.05;;;;;;;11.53;44.76;101034.44;4979175;28;20050;-75
2022/02/23 10:16:48;;;;;;;22.45;10.95;;;;;;;11.02;44.90;101059.44;4976792;28;20480;-74
2022/02/23 10:19:22;;;;;;;28.20;10.02;;;;;;;11.47;44.99;101056.31;4988729;28;20069;-75
2022/02/23 10:22:00;;;;;;;16.38;11.07;;;;;;;11.30;45.14;101047.41;4984388;28;20034;-77
2022/02/23 10:24:30;;;;;;;16.33;11.05;;;;;;;11.65;44.37;101060.78;4989144;28;20490;-76
2022/02/23 10:27:05;;;;;;;24.70;12.75;;;;;;;11.42;45.08;101063.25;4995833;28;20433;-75
2022/02/23 10:29:55;;;;;;;18.88;11.43;;;;;;;10.92;45.48;101062.00;4976261;28;20467;-76
2022/02/23 10:32:22;;;;;;;17.65;10.85;;;;;;;10.99;45.60;101055.91;4975088;28;20058;-75
2022/02/23 10:34:51;;;;;;;18.50;11.75;;;;;;;11.04;45.74;101057.72;4982199;28;20125;-75
2022/02/23 10:37:20;;;;;;;17.40;11.23;;;;;;;10.87;46.00;101052.31;4987691;28;20049;-76
2022/02/23 10:39:48;;;;;;;20.52;13.30;;;;;;;11.08;46.07;101063.00;4976134;28;20070;-76
2022/02/23 10:42:24;;;;;;;13.80;10.32;;;;;;;11.14;45.42;101049.94;5010944;28;20030;-75
2022/02/23 10:44:50;;;;;;;18.60;12.50;;;;;;;11.14;45.36;101055.19;4979176;28;20042;-76
2022/02/23 10:47:32;;;;;;;18.40;11.63;;;;;;;11.09;46.19;101053.38;4974919;28;21177;-75
2022/02/23 10:50:07;;;;;;;23.17;12.93;;;;;;;11.17;46.16;101043.81;4976247;28;20129;-76
2022/02/23 10:52:39;;;;;;;14.32;12.00;;;;;;;10.92;45.97;101034.84;4980245;28;20097;-76
2022/02/23 10:57:32;;;;;;;16.48;12.95;;;;;;;11.38;45.88;101037.84;5093940;27;21140;-75
2022/02/23 11:00:31;;;;;;;17.77;13.38;;;;;;;11.44;45.75;101040.50;5052711;28;20108;-77
2022/02/23 11:02:58;;;;;;;21.80;12.20;;;;;;;11.53;46.55;101035.31;5020819;28;20048;-75
2022/02/23 11:05:25;;;;;;;18.83;12.70;;;;;;;11.25;46.33;101028.97;5054069;28;20029;-76
2022/02/23 11:07:53;;;;;;;17.92;12.95;;;;;;;11.32;47.24;101040.41;5044946;28;20169;-76
2022/02/23 11:10:19;;;;;;;15.57;12.60;;;;;;;11.37;46.93;101033.44;5023206;28;20395;-72
2022/02/23 11:12:47;;;;;;;16.52;13.10;;;;;;;11.38;46.66;101035.22;5042826;28;20080;-77
2022/02/23 11:15:14;;;;;;;19.00;13.50;;;;;;;10.97;47.57;101041.03;5036937;28;20444;-76
2022/02/23 11:17:41;;;;;;;27.77;13.93;;;;;;;11.03;47.36;101025.34;5035503;28;20029;-77
2022/02/23 11:20:07;;;;;;;19.60;13.15;;;;;;;10.72;48.96;101030.31;5040397;28;20045;-77
2022/02/23 11:22:33;;;;;;;21.58;12.98;;;;;;;10.71;50.13;101025.91;5038994;28;20053;-77
2022/02/23 11:25:01;;;;;;;21.70;13.40;;;;;;;10.78;51.07;101035.59;5040900;28;20033;-77
2022/02/23 11:27:32;;;;;;;18.55;13.00;;;;;;;10.81;50.91;101026.88;5025458;28;20076;-77
2022/02/23 11:30:05;;;;;;;16.60;13.23;;;;;;;10.71;51.29;101022.41;5030094;28;20029;-77
2022/02/23 11:32:40;;;;;;;20.13;13.68;;;;;;;10.70;51.44;101025.88;5039645;28;20060;-79
2022/02/23 11:35:07;;;;;;;26.75;14.05;;;;;;;10.51;51.81;101036.25;5041193;28;20477;-77
2022/02/23 11:37:33;;;;;;;27.05;12.70;;;;;;;10.63;51.75;101024.06;5042416;28;20133;-75
2022/02/23 11:39:59;;;;;;;17.92;13.05;;;;;;;10.28;53.15;101032.47;5043644;28;20041;-77
2022/02/23 11:42:26;;;;;;;17.95;11.65;;;;;;;10.55;52.74;101031.88;5044609;28;20045;-76